Polis, Cyprus
Current Conditions -  °F | °C
As of 5:30 AM on Saturday 29 Nov 2014 (Local Time) from LCPH Reporting Station
Clear Clear  
Wind Chill: 13°   Ceiling: Unl
Heat Index: 13°   Visibility: 6mi
Dew Point:   Wind: 7mph
Humidity: 77%   Direction: 30°NNE
Pressure: 30.21"   Gusts: NA
Location:  35.03°N, 32.41°E
Report Text: LCPH 290230Z AUTO 03006KT 9999 NCD 13/09 Q1023
Loading
Personal Weather Stations






























Interactive Weather Map New forecast layout! Learn more

10-Day Weather Forecast

Advertisements
Track Severe Weather on mobile